createdAt,value
2018-03-04T00:00:04.706Z,987.36
2018-03-04T00:01:14.485Z,987.38
2018-03-04T00:02:23.719Z,987.4
2018-03-04T00:03:33.720Z,987.36
2018-03-04T00:04:43.451Z,987.34
2018-03-04T00:05:52.917Z,987.4
2018-03-04T00:07:02.925Z,987.38
2018-03-04T00:08:12.959Z,987.41
2018-03-04T00:09:23.000Z,987.41
2018-03-04T00:10:32.738Z,987.44
2018-03-04T00:11:42.469Z,987.41
2018-03-04T00:12:52.224Z,987.45
2018-03-04T00:14:01.728Z,987.46
2018-03-04T00:15:11.509Z,987.44
2018-03-04T00:16:21.502Z,987.43
2018-03-04T00:17:31.234Z,987.45
2018-03-04T00:18:40.973Z,987.47
2018-03-04T00:19:50.456Z,987.46
2018-03-04T00:21:00.471Z,987.54
2018-03-04T00:22:10.210Z,987.53
2018-03-04T00:23:19.947Z,987.52
2018-03-04T00:24:29.696Z,987.56
2018-03-04T00:25:39.176Z,987.51
2018-03-04T00:26:49.157Z,987.52
2018-03-04T00:27:58.938Z,987.58
2018-03-04T00:29:08.951Z,987.6
2018-03-04T00:30:18.951Z,987.62
2018-03-04T00:31:28.679Z,987.65
2018-03-04T00:32:38.421Z,987.65
2018-03-04T00:33:48.143Z,987.68
2018-03-04T00:34:57.887Z,987.68
2018-03-04T00:36:07.628Z,987.7
2018-03-04T00:37:17.362Z,987.68
2018-03-04T00:38:27.356Z,987.68
2018-03-04T00:39:37.359Z,987.67
2018-03-04T00:40:46.832Z,987.68
2018-03-04T00:41:56.309Z,987.64
2018-03-04T00:43:06.055Z,987.67
2018-03-04T00:44:15.844Z,987.68
2018-03-04T00:45:25.854Z,987.64
2018-03-04T00:46:35.577Z,987.67
2018-03-04T00:47:45.035Z,987.69
2018-03-04T00:48:54.511Z,987.71
2018-03-04T00:50:04.227Z,987.7
2018-03-04T00:51:14.244Z,987.73
2018-03-04T00:52:24.246Z,987.73
2018-03-04T00:53:33.977Z,987.69
2018-03-04T00:54:43.978Z,987.71
2018-03-04T00:55:53.954Z,987.7
2018-03-04T00:57:03.682Z,987.72
2018-03-04T00:58:13.654Z,987.72
2018-03-04T00:59:23.641Z,987.73
2018-03-04T01:00:33.116Z,987.74
2018-03-04T01:01:43.104Z,987.75
2018-03-04T01:02:53.094Z,987.73
2018-03-04T01:04:03.082Z,987.74
2018-03-04T01:05:12.819Z,987.76
2018-03-04T01:06:22.311Z,987.75
2018-03-04T01:07:32.333Z,987.76
2018-03-04T01:08:42.336Z,987.69
2018-03-04T01:09:52.337Z,987.79
2018-03-04T01:11:01.804Z,987.83
2018-03-04T01:12:11.776Z,987.76
2018-03-04T01:13:21.822Z,987.77
2018-03-04T01:14:31.553Z,987.72
2018-03-04T01:15:41.575Z,987.77
2018-03-04T01:16:51.580Z,987.76
2018-03-04T01:18:01.584Z,987.81
2018-03-04T01:19:11.301Z,987.86
2018-03-04T01:20:21.300Z,987.86
2018-03-04T01:21:31.028Z,987.88
2018-03-04T01:22:40.493Z,987.84
2018-03-04T01:23:50.473Z,987.85
2018-03-04T01:25:00.543Z,987.85
2018-03-04T01:26:09.746Z,987.94
2018-03-04T01:27:19.478Z,987.9
2018-03-04T01:28:29.447Z,987.95
2018-03-04T01:29:39.436Z,987.91
2018-03-04T01:30:48.928Z,987.83
2018-03-04T01:31:58.409Z,987.84
2018-03-04T01:33:08.398Z,987.86
2018-03-04T01:34:18.143Z,987.89
2018-03-04T01:35:27.622Z,987.92
2018-03-04T01:36:37.612Z,987.91
2018-03-04T01:37:47.084Z,987.96
2018-03-04T01:38:57.069Z,987.94
2018-03-04T01:40:07.073Z,987.93
2018-03-04T01:41:17.065Z,987.89
2018-03-04T01:42:27.107Z,987.93
2018-03-04T01:43:37.097Z,987.94
2018-03-04T01:44:47.089Z,987.95
2018-03-04T01:45:56.564Z,988
2018-03-04T01:47:06.301Z,987.98
2018-03-04T01:48:16.040Z,988
2018-03-04T01:49:26.025Z,988.04
2018-03-04T01:50:35.748Z,988.04
2018-03-04T01:51:45.741Z,988.04
2018-03-04T01:52:55.477Z,988.04
2018-03-04T01:54:05.458Z,988.04
2018-03-04T01:55:15.470Z,988.03
2018-03-04T01:56:25.457Z,988.03
2018-03-04T01:57:35.469Z,988.01
2018-03-04T01:58:45.240Z,988.02
2018-03-04T01:59:55.037Z,988.06
2018-03-04T02:01:04.515Z,988.09
2018-03-04T02:02:14.022Z,988.09
2018-03-04T02:03:23.768Z,988.09
2018-03-04T02:04:33.763Z,988.13
2018-03-04T02:05:43.744Z,988.14
2018-03-04T02:06:53.736Z,988.07
2018-03-04T02:08:03.472Z,988.09
2018-03-04T02:09:12.926Z,988.09
2018-03-04T02:10:22.934Z,988.08
2018-03-04T02:11:33.159Z,988.11
2018-03-04T02:12:42.889Z,988.1
2018-03-04T02:13:52.374Z,988.15
2018-03-04T02:15:02.376Z,988.14
2018-03-04T02:16:12.099Z,988.2
2018-03-04T02:17:21.832Z,988.2
2018-03-04T02:18:31.555Z,988.23
2018-03-04T02:19:41.282Z,988.26
2018-03-04T02:20:51.018Z,988.26
2018-03-04T02:22:01.007Z,988.27
2018-03-04T02:23:10.235Z,988.26
2018-03-04T02:24:19.978Z,988.25
2018-03-04T02:25:29.996Z,988.3
2018-03-04T02:26:39.727Z,988.3
2018-03-04T02:27:49.189Z,988.31
2018-03-04T02:28:59.176Z,988.3
2018-03-04T02:30:09.170Z,988.27
2018-03-04T02:31:19.188Z,988.29
2018-03-04T02:32:29.185Z,988.29
2018-03-04T02:33:38.923Z,988.3
2018-03-04T02:34:48.438Z,988.28
2018-03-04T02:35:58.175Z,988.3
2018-03-04T02:37:08.240Z,988.29
2018-03-04T02:38:18.232Z,988.3
2018-03-04T02:39:28.224Z,988.3
2018-03-04T02:40:38.214Z,988.25
2018-03-04T02:41:48.206Z,988.24
2018-03-04T02:42:58.226Z,988.25
2018-03-04T02:44:07.954Z,988.23
2018-03-04T02:45:17.686Z,988.22
2018-03-04T02:46:27.440Z,988.3
2018-03-04T02:47:37.459Z,988.23
2018-03-04T02:48:47.192Z,988.3
2018-03-04T02:49:56.919Z,988.31
2018-03-04T02:51:06.401Z,988.35
2018-03-04T02:52:16.392Z,988.38
2018-03-04T02:53:26.135Z,988.41
2018-03-04T02:54:35.880Z,988.45
2018-03-04T02:55:45.870Z,988.45
2018-03-04T02:56:55.861Z,988.49
2018-03-04T02:58:05.332Z,988.47
2018-03-04T02:59:14.816Z,988.5
2018-03-04T03:00:24.544Z,988.52
2018-03-04T03:01:34.536Z,988.48
2018-03-04T03:02:44.523Z,988.51
2018-03-04T03:03:54.288Z,988.45
2018-03-04T03:05:04.305Z,988.47
2018-03-04T03:06:21.923Z,988.42
2018-03-04T03:07:31.908Z,988.46
2018-03-04T03:08:41.911Z,988.5
2018-03-04T03:40:02.557Z,988.7
2018-03-04T03:41:12.276Z,988.73
2018-03-04T03:42:22.253Z,988.73
2018-03-04T03:43:31.972Z,988.77
2018-03-04T03:44:41.949Z,988.76
2018-03-04T03:45:51.932Z,988.8
2018-03-04T03:47:01.929Z,988.84
2018-03-04T03:48:11.399Z,988.81
2018-03-04T03:49:21.119Z,988.84
2018-03-04T03:50:31.094Z,988.83
2018-03-04T03:51:41.086Z,988.82
2018-03-04T03:52:51.063Z,988.84
2018-03-04T03:54:01.049Z,988.86
2018-03-04T03:55:10.517Z,988.87
2018-03-04T03:56:20.518Z,988.9
2018-03-04T03:57:30.348Z,988.87
2018-03-04T03:58:40.346Z,988.91
2018-03-04T03:59:50.355Z,988.91
2018-03-04T04:01:00.100Z,988.9
2018-03-04T04:02:10.101Z,988.89
2018-03-04T04:03:19.571Z,988.9
2018-03-04T04:04:28.790Z,988.94
2018-03-04T04:05:38.536Z,988.99
2018-03-04T04:06:48.267Z,988.93
2018-03-04T04:07:58.259Z,989.02
2018-03-04T04:09:08.101Z,988.94
2018-03-04T04:10:17.828Z,988.99
2018-03-04T04:11:27.575Z,988.97
2018-03-04T04:12:36.788Z,988.95
2018-03-04T04:13:46.767Z,988.97
2018-03-04T04:14:56.282Z,988.97
2018-03-04T04:16:06.283Z,988.97
2018-03-04T04:17:15.484Z,989.02
2018-03-04T04:18:25.470Z,989
2018-03-04T04:19:35.460Z,989.03
2018-03-04T04:20:45.465Z,989.06
2018-03-04T04:21:55.295Z,989.11
2018-03-04T04:23:05.042Z,989.1
2018-03-04T04:24:14.781Z,989.1
2018-03-04T04:25:24.767Z,989.13
2018-03-04T04:26:34.803Z,989.15
2018-03-04T04:27:44.806Z,989.14
2018-03-04T04:28:54.875Z,989.16
2018-03-04T04:30:04.870Z,989.14
2018-03-04T04:31:14.605Z,989.16
2018-03-04T04:32:24.596Z,989.13
2018-03-04T04:33:34.584Z,989.16
2018-03-04T04:34:44.577Z,989.12
2018-03-04T04:35:54.562Z,989.13
2018-03-04T04:37:04.568Z,989.12
2018-03-04T04:38:14.560Z,989.15
2018-03-04T04:39:24.542Z,989.14
2018-03-04T04:40:34.249Z,989.14
2018-03-04T04:41:43.968Z,989.12
2018-03-04T04:42:53.689Z,989.13
2018-03-04T04:44:02.919Z,989.12
2018-03-04T04:45:12.649Z,989.1
2018-03-04T04:46:22.652Z,989.17
2018-03-04T04:47:32.385Z,989.17
2018-03-04T04:48:42.118Z,989.19
2018-03-04T04:49:52.103Z,989.18
2018-03-04T04:51:01.849Z,989.2
2018-03-04T04:52:11.852Z,989.23
2018-03-04T04:53:21.859Z,989.23
2018-03-04T04:54:31.336Z,989.29
2018-03-04T04:55:41.064Z,989.27
2018-03-04T04:56:51.040Z,989.32
2018-03-04T04:58:01.026Z,989.28
2018-03-04T04:59:11.075Z,989.24
2018-03-04T05:00:20.858Z,989.25
2018-03-04T05:01:30.384Z,989.25
2018-03-04T05:02:39.907Z,989.25
2018-03-04T05:03:49.704Z,989.22
2018-03-04T05:04:59.744Z,989.23
2018-03-04T05:06:09.802Z,989.25
2018-03-04T05:07:19.330Z,989.22
2018-03-04T05:08:29.115Z,989.22
2018-03-04T05:09:39.168Z,989.24
2018-03-04T05:10:48.956Z,989.24
2018-03-04T05:11:59.016Z,989.28
2018-03-04T05:13:08.834Z,989.29
2018-03-04T05:14:18.886Z,989.28
2018-03-04T05:15:28.404Z,989.3
2018-03-04T05:16:37.946Z,989.31
2018-03-04T05:17:47.486Z,989.33
2018-03-04T05:18:57.066Z,989.35
2018-03-04T05:20:06.869Z,989.34
2018-03-04T05:21:16.928Z,989.36
2018-03-04T05:22:26.976Z,989.37
2018-03-04T05:23:37.034Z,989.34
2018-03-04T05:24:46.292Z,989.3
2018-03-04T05:25:56.341Z,989.35
2018-03-04T05:27:06.124Z,989.43
2018-03-04T05:28:16.192Z,989.47
2018-03-04T05:29:25.993Z,989.48
2018-03-04T05:30:36.116Z,989.52
2018-03-04T05:31:48.871Z,989.49
2018-03-04T05:32:58.657Z,989.49
2018-03-04T05:34:08.446Z,989.49
2018-03-04T05:35:17.969Z,989.55
2018-03-04T05:36:27.767Z,989.52
2018-03-04T05:37:37.797Z,989.55
2018-03-04T05:38:47.850Z,989.54
2018-03-04T05:39:57.646Z,989.55
2018-03-04T05:41:06.922Z,989.63
2018-03-04T05:42:16.748Z,989.61
2018-03-04T05:43:26.791Z,989.61
2018-03-04T05:44:36.350Z,989.59
2018-03-04T05:45:46.398Z,989.56
2018-03-04T05:46:56.181Z,989.58
2018-03-04T05:48:06.246Z,989.59
2018-03-04T05:49:16.298Z,989.57
2018-03-04T05:50:25.906Z,989.59
2018-03-04T05:51:35.717Z,989.58
2018-03-04T05:52:45.513Z,989.59
2018-03-04T05:53:55.575Z,989.56
2018-03-04T05:55:05.381Z,989.58
2018-03-04T05:56:15.159Z,989.63
2018-03-04T05:57:25.221Z,989.64
2018-03-04T05:58:35.281Z,989.64
2018-03-04T05:59:45.226Z,989.66
2018-03-04T06:00:55.011Z,989.67
2018-03-04T06:02:04.619Z,989.7
2018-03-04T06:03:14.405Z,989.7
2018-03-04T06:04:24.193Z,989.78
2018-03-04T06:05:34.303Z,989.83
2018-03-04T06:06:44.357Z,989.83
2018-03-04T06:07:54.425Z,989.88
2018-03-04T06:09:04.223Z,989.88
2018-03-04T06:10:13.740Z,989.97
2018-03-04T06:11:23.806Z,989.97
2018-03-04T06:12:33.883Z,989.95
2018-03-04T06:13:43.668Z,989.96
2018-03-04T06:14:53.726Z,989.98
2018-03-04T06:16:03.772Z,989.97
2018-03-04T06:17:13.902Z,989.96
2018-03-04T06:18:23.697Z,989.97
2018-03-04T06:19:33.482Z,989.98
2018-03-04T06:20:43.276Z,990
2018-03-04T06:21:53.062Z,990.01
2018-03-04T06:23:02.649Z,990.03
2018-03-04T06:24:12.713Z,990.01
2018-03-04T06:25:22.507Z,990.07
2018-03-04T06:26:32.293Z,990.07
2018-03-04T06:27:42.088Z,990.05
2018-03-04T06:28:51.664Z,990.13
2018-03-04T06:30:01.730Z,990.12
2018-03-04T06:31:11.797Z,990.1
2018-03-04T06:32:21.842Z,990.11
2018-03-04T06:33:31.890Z,990.15
2018-03-04T06:34:41.964Z,990.18
2018-03-04T06:35:52.038Z,990.17
2018-03-04T06:37:01.829Z,990.1
2018-03-04T06:38:11.375Z,990.18
2018-03-04T06:39:20.909Z,990.22
2018-03-04T06:40:30.675Z,990.27
2018-03-04T06:41:40.486Z,990.28
2018-03-04T06:42:50.283Z,990.29
2018-03-04T06:44:00.342Z,990.31
2018-03-04T06:45:10.406Z,990.33
2018-03-04T06:46:19.937Z,990.36
2018-03-04T06:47:30.006Z,990.36
2018-03-04T06:48:39.528Z,990.37
2018-03-04T06:49:49.588Z,990.42
2018-03-04T06:50:59.471Z,990.41
2018-03-04T06:52:09.267Z,990.45
2018-03-04T06:53:19.119Z,990.44
2018-03-04T06:54:29.184Z,990.46
2018-03-04T06:55:39.028Z,990.47
2018-03-04T06:56:48.832Z,990.48
2018-03-04T06:57:58.928Z,990.43
2018-03-04T06:59:09.003Z,990.47
2018-03-04T07:00:19.065Z,990.5
2018-03-04T07:01:29.118Z,990.43
2018-03-04T07:02:39.169Z,990.38
2018-03-04T07:03:49.262Z,990.35
2018-03-04T07:04:59.313Z,990.35
2018-03-04T07:06:09.363Z,990.38
2018-03-04T07:07:18.905Z,990.41
2018-03-04T07:08:28.427Z,990.42
2018-03-04T07:09:38.220Z,990.45
2018-03-04T07:10:48.261Z,990.41
2018-03-04T07:11:58.043Z,990.4
2018-03-04T07:13:07.841Z,990.42
2018-03-04T07:14:17.660Z,990.43
2018-03-04T07:15:27.512Z,990.43
2018-03-04T07:16:37.314Z,990.45
2018-03-04T07:17:47.388Z,990.45
2018-03-04T07:18:56.915Z,990.47
2018-03-04T07:20:06.715Z,990.49
2018-03-04T07:21:16.513Z,990.5
2018-03-04T07:22:26.588Z,990.55
2018-03-04T07:23:36.647Z,990.5
2018-03-04T07:24:46.722Z,990.48
2018-03-04T07:25:56.513Z,990.43
2018-03-04T07:27:06.316Z,990.4
2018-03-04T07:28:16.108Z,990.43
2018-03-04T07:29:25.438Z,990.4
2018-03-04T07:30:35.232Z,990.37
2018-03-04T07:31:44.744Z,990.37
2018-03-04T07:32:54.859Z,990.34
2018-03-04T07:34:04.384Z,990.33
2018-03-04T07:35:14.185Z,990.32
2018-03-04T07:36:23.978Z,990.28
2018-03-04T07:37:34.076Z,990.29
2018-03-04T07:38:43.958Z,990.29
2018-03-04T07:39:53.738Z,990.32
2018-03-04T07:41:03.808Z,990.29
2018-03-04T07:42:13.851Z,990.35
2018-03-04T07:43:23.650Z,990.32
2018-03-04T07:44:33.437Z,990.35
2018-03-04T07:45:43.494Z,990.36
2018-03-04T07:46:53.018Z,990.37
2018-03-04T07:48:02.858Z,990.42
2018-03-04T07:49:12.667Z,990.4
2018-03-04T07:50:22.781Z,990.45
2018-03-04T07:51:32.870Z,990.4
2018-03-04T07:52:42.924Z,990.43
2018-03-04T07:53:52.975Z,990.4
2018-03-04T07:55:03.028Z,990.42
2018-03-04T07:56:12.612Z,990.41
2018-03-04T07:57:22.412Z,990.47
2018-03-04T07:58:32.464Z,990.43
2018-03-04T07:59:42.519Z,990.37
2018-03-04T08:00:52.593Z,990.34
2018-03-04T08:02:02.403Z,990.37
2018-03-04T08:03:12.206Z,990.41
2018-03-04T08:04:21.991Z,990.39
2018-03-04T08:05:31.789Z,990.39
2018-03-04T08:06:41.846Z,990.4
2018-03-04T08:07:51.672Z,990.39
2018-03-04T08:09:01.758Z,990.44
2018-03-04T08:10:11.841Z,990.43
2018-03-04T08:11:21.663Z,990.42
2018-03-04T08:12:31.070Z,990.41
2018-03-04T08:13:41.177Z,990.45
2018-03-04T08:14:51.250Z,990.41
2018-03-04T08:16:01.050Z,990.35
2018-03-04T08:17:10.572Z,990.38
2018-03-04T08:18:20.645Z,990.41
2018-03-04T08:19:30.490Z,990.39
2018-03-04T08:20:40.546Z,990.37
2018-03-04T08:21:50.104Z,990.38
2018-03-04T08:22:59.895Z,990.36
2018-03-04T08:24:09.699Z,990.38
2018-03-04T08:25:19.870Z,990.36
2018-03-04T08:26:29.942Z,990.35
2018-03-04T08:27:39.746Z,990.34
2018-03-04T08:28:49.295Z,990.35
2018-03-04T08:29:58.828Z,990.31
2018-03-04T08:31:08.956Z,990.27
2018-03-04T08:32:19.040Z,990.26
2018-03-04T08:33:28.830Z,990.28
2018-03-04T08:34:38.893Z,990.32
2018-03-04T08:35:48.680Z,990.35
2018-03-04T08:36:58.507Z,990.36
2018-03-04T08:38:08.558Z,990.35
2018-03-04T08:39:18.618Z,990.37
2018-03-04T08:40:28.676Z,990.37
2018-03-04T08:41:38.529Z,990.37
2018-03-04T08:42:48.683Z,990.36
2018-03-04T08:43:58.788Z,990.32
2018-03-04T08:45:08.601Z,990.32
2018-03-04T08:46:18.679Z,990.33
2018-03-04T08:47:28.463Z,990.3
2018-03-04T08:48:38.276Z,990.3
2018-03-04T08:49:48.376Z,990.32
2018-03-04T08:50:57.908Z,990.29
2018-03-04T08:52:07.732Z,990.3
2018-03-04T08:53:17.799Z,990.29
2018-03-04T08:54:27.929Z,990.27
2018-03-04T08:55:38.017Z,990.29
2018-03-04T08:56:47.844Z,990.3
2018-03-04T08:57:57.929Z,990.28
2018-03-04T08:59:07.484Z,990.28
2018-03-04T09:00:17.358Z,990.3
2018-03-04T09:01:27.459Z,990.3
2018-03-04T09:02:37.530Z,990.31
2018-03-04T09:03:47.614Z,990.34
2018-03-04T09:04:57.724Z,990.33
2018-03-04T09:06:07.912Z,990.29
2018-03-04T09:07:17.495Z,990.32
2018-03-04T09:08:27.560Z,990.33
2018-03-04T09:09:37.106Z,990.36
2018-03-04T09:10:46.906Z,990.38
2018-03-04T09:11:56.713Z,990.35
2018-03-04T09:13:06.520Z,990.38
2018-03-04T09:14:15.804Z,990.35
2018-03-04T09:15:25.889Z,990.37
2018-03-04T09:16:35.447Z,990.38
2018-03-04T09:17:45.269Z,990.41
2018-03-04T09:18:55.347Z,990.42
2018-03-04T09:20:05.145Z,990.4
2018-03-04T09:21:15.225Z,990.44
2018-03-04T09:22:25.056Z,990.45
2018-03-04T09:23:34.957Z,990.43
2018-03-04T09:24:45.052Z,990.4
2018-03-04T09:25:54.861Z,990.44
2018-03-04T09:27:04.929Z,990.42
2018-03-04T09:28:14.558Z,990.4
2018-03-04T09:29:24.637Z,990.39
2018-03-04T09:30:34.469Z,990.34
2018-03-04T09:31:44.600Z,990.38
2018-03-04T09:32:54.300Z,990.38
2018-03-04T09:34:04.100Z,990.36
2018-03-04T09:35:14.401Z,990.35
2018-03-04T09:36:24.230Z,990.34
2018-03-04T09:37:34.192Z,990.39
2018-03-04T09:38:44.067Z,990.36
2018-03-04T09:39:54.144Z,990.35
2018-03-04T09:41:04.248Z,990.38
2018-03-04T09:42:14.064Z,990.38
2018-03-04T09:43:23.617Z,990.38
2018-03-04T09:44:33.435Z,990.41
2018-03-04T09:45:43.370Z,990.39
2018-03-04T09:46:53.478Z,990.41
2018-03-04T09:48:03.304Z,990.42
2018-03-04T09:49:13.408Z,990.42
2018-03-04T09:50:23.222Z,990.4
2018-03-04T09:51:32.541Z,990.37
2018-03-04T09:52:42.351Z,990.4
2018-03-04T09:53:51.945Z,990.43
2018-03-04T09:55:01.781Z,990.45
2018-03-04T09:56:11.940Z,990.43
2018-03-04T09:57:22.050Z,990.41
2018-03-04T09:58:32.150Z,990.43
2018-03-04T09:59:42.235Z,990.41
2018-03-04T10:00:52.350Z,990.34
2018-03-04T10:02:02.408Z,990.33
2018-03-04T10:03:12.019Z,990.28
2018-03-04T10:04:21.808Z,990.29
2018-03-04T10:05:31.906Z,990.31
2018-03-04T10:06:42.103Z,990.3
2018-03-04T10:07:52.900Z,990.27
2018-03-04T10:09:03.388Z,990.27
2018-03-04T10:10:13.534Z,990.28
2018-03-04T10:11:23.470Z,990.28
2018-03-04T10:12:33.917Z,990.23
2018-03-04T10:13:43.846Z,990.19
2018-03-04T10:14:53.723Z,990.2
2018-03-04T10:16:03.886Z,990.17
2018-03-04T10:17:13.695Z,990.18
2018-03-04T10:18:22.985Z,990.21
2018-03-04T10:19:32.592Z,990.17
2018-03-04T10:20:42.149Z,990.19
2018-03-04T10:21:52.244Z,990.21
2018-03-04T10:23:02.339Z,990.24
2018-03-04T10:24:12.400Z,990.23
2018-03-04T10:25:22.241Z,990.27
2018-03-04T10:26:32.058Z,990.24
2018-03-04T10:27:41.630Z,990.19
2018-03-04T10:28:51.710Z,990.17
2018-03-04T10:30:01.511Z,990.18
2018-03-04T10:31:11.409Z,990.15
2018-03-04T10:32:21.522Z,990.13
2018-03-04T10:33:30.828Z,990.13
2018-03-04T10:34:40.921Z,990.12
2018-03-04T10:35:50.983Z,990.13
2018-03-04T10:37:01.119Z,990.08
2018-03-04T10:38:11.227Z,990.1
2018-03-04T10:39:21.304Z,990.1
2018-03-04T10:40:31.381Z,990.09
2018-03-04T10:41:41.474Z,990.05
2018-03-04T10:42:51.592Z,990.09
2018-03-04T10:44:01.675Z,990.03
2018-03-04T10:45:11.797Z,989.99
2018-03-04T10:46:21.986Z,990
2018-03-04T10:47:31.844Z,989.96
2018-03-04T10:48:41.973Z,990
2018-03-04T10:49:52.075Z,989.97
2018-03-04T10:51:01.957Z,989.98
2018-03-04T10:52:11.741Z,989.89
2018-03-04T10:53:21.827Z,989.92
2018-03-04T10:54:31.937Z,989.88
2018-03-04T10:55:42.021Z,989.86
2018-03-04T10:56:52.111Z,989.87
2018-03-04T10:58:01.960Z,989.79
2018-03-04T10:59:11.777Z,989.84
2018-03-04T11:00:21.379Z,989.8
2018-03-04T11:01:31.466Z,989.81
2018-03-04T11:02:41.292Z,989.79
2018-03-04T11:03:51.390Z,989.79
2018-03-04T11:05:01.296Z,989.7
2018-03-04T11:06:10.843Z,989.65
2018-03-04T11:07:20.971Z,989.68
2018-03-04T11:08:31.074Z,989.67
2018-03-04T11:09:40.893Z,989.69
2018-03-04T11:10:50.853Z,989.64
2018-03-04T11:12:00.758Z,989.58
2018-03-04T11:13:10.592Z,989.58
2018-03-04T11:14:20.180Z,989.51
2018-03-04T11:15:29.728Z,989.46
2018-03-04T11:16:39.605Z,989.48
2018-03-04T11:17:49.706Z,989.5
2018-03-04T11:18:59.504Z,989.53
2018-03-04T11:20:09.334Z,989.58
2018-03-04T11:21:18.885Z,989.6
2018-03-04T11:22:29.024Z,989.62
2018-03-04T11:23:39.156Z,989.65
2018-03-04T11:24:49.239Z,989.68
2018-03-04T11:25:59.320Z,989.63
2018-03-04T11:27:09.382Z,989.69
2018-03-04T11:28:19.563Z,989.64
2018-03-04T11:29:29.378Z,989.67
2018-03-04T11:30:39.457Z,989.7
2018-03-04T11:31:49.634Z,989.74
2018-03-04T11:32:59.705Z,989.73
2018-03-04T11:34:09.795Z,989.69
2018-03-04T11:35:19.850Z,989.67
2018-03-04T11:36:29.670Z,989.66
2018-03-04T11:37:39.468Z,989.62
2018-03-04T11:38:49.021Z,989.61
2018-03-04T11:39:58.917Z,989.62
2018-03-04T11:41:09.011Z,989.6
2018-03-04T11:42:19.084Z,989.61
2018-03-04T11:43:28.631Z,989.58
2018-03-04T11:44:38.455Z,989.52
2018-03-04T11:45:48.557Z,989.55
2018-03-04T11:46:58.644Z,989.56
2018-03-04T11:48:08.718Z,989.52
2018-03-04T11:49:18.532Z,989.49
2018-03-04T11:50:28.629Z,989.51
2018-03-04T11:51:38.735Z,989.52
2018-03-04T11:52:48.822Z,989.47
2018-03-04T11:53:58.888Z,989.43
2018-03-04T11:55:08.440Z,989.46
2018-03-04T11:56:18.521Z,989.39
2018-03-04T11:57:28.120Z,989.42
2018-03-04T11:58:37.691Z,989.41
2018-03-04T11:59:47.518Z,989.42
2018-03-04T12:00:57.065Z,989.4
2018-03-04T12:02:07.136Z,989.41
2018-03-04T12:03:17.220Z,989.38
2018-03-04T12:04:26.781Z,989.31
2018-03-04T12:05:36.872Z,989.36
2018-03-04T12:06:46.998Z,989.37
2018-03-04T12:07:57.197Z,989.37
2018-03-04T12:09:07.048Z,989.38
2018-03-04T12:10:16.614Z,989.36
2018-03-04T12:11:26.407Z,989.35
2018-03-04T12:12:36.285Z,989.29
2018-03-04T12:13:46.401Z,989.31
2018-03-04T12:14:55.934Z,989.32
2018-03-04T12:16:05.801Z,989.3
2018-03-04T12:17:15.876Z,989.31
2018-03-04T12:18:25.960Z,989.26
2018-03-04T12:19:36.046Z,989.17
2018-03-04T12:20:45.889Z,989.17
2018-03-04T12:21:55.716Z,989.16
2018-03-04T12:23:05.633Z,989.18
2018-03-04T12:24:15.747Z,989.18
2018-03-04T12:25:25.603Z,989.15
2018-03-04T12:26:35.717Z,989.08
2018-03-04T12:27:45.541Z,989.09
2018-03-04T12:28:55.390Z,989
2018-03-04T12:30:05.507Z,989.02
2018-03-04T12:31:14.798Z,988.98
2018-03-04T12:32:24.627Z,989.05
2018-03-04T12:33:34.705Z,989.07
2018-03-04T12:34:44.530Z,989.09
2018-03-04T12:35:54.400Z,989.06
2018-03-04T12:37:04.209Z,988.99
2018-03-04T12:38:14.037Z,988.98
2018-03-04T12:39:23.589Z,989
2018-03-04T12:40:33.690Z,988.98
2018-03-04T12:41:43.491Z,988.99
2018-03-04T12:42:53.303Z,988.92
2018-03-04T12:44:03.400Z,988.99
2018-03-04T12:45:13.233Z,988.92
2018-03-04T12:46:23.329Z,988.85
2018-03-04T12:47:32.960Z,988.84
2018-03-04T12:48:43.130Z,988.87
2018-03-04T12:49:53.323Z,988.84
2018-03-04T12:51:03.143Z,988.81
2018-03-04T12:52:12.986Z,988.88
2018-03-04T12:53:23.139Z,988.82
2018-03-04T12:54:33.233Z,988.82
2018-03-04T12:55:43.070Z,988.88
2018-03-04T12:56:53.180Z,988.81
2018-03-04T12:58:03.093Z,988.77
2018-03-04T12:59:14.906Z,988.7
2018-03-04T13:00:24.732Z,988.7
2018-03-04T13:01:34.561Z,988.7
2018-03-04T13:02:44.673Z,988.76
2018-03-04T13:03:54.328Z,988.77
2018-03-04T13:05:04.466Z,988.81
2018-03-04T13:06:13.913Z,988.8
2018-03-04T13:07:23.736Z,988.77
2018-03-04T13:08:33.829Z,988.72
2018-03-04T13:09:43.913Z,988.79
2018-03-04T13:10:54.131Z,988.73
2018-03-04T13:12:03.978Z,988.77
2018-03-04T13:13:13.302Z,988.7
2018-03-04T13:14:23.141Z,988.74
2018-03-04T13:15:33.305Z,988.73
2018-03-04T13:16:43.584Z,988.74
2018-03-04T13:17:53.412Z,988.72
2018-03-04T13:19:03.301Z,988.74
2018-03-04T13:20:13.150Z,988.84
2018-03-04T13:21:23.037Z,988.85
2018-03-04T13:22:33.135Z,988.87
2018-03-04T13:23:43.218Z,988.86
2018-03-04T13:24:53.081Z,988.83
2018-03-04T13:26:02.908Z,988.85
2018-03-04T13:27:12.733Z,988.89
2018-03-04T13:28:22.636Z,988.91
2018-03-04T13:29:32.437Z,988.86
2018-03-04T13:30:42.013Z,988.88
2018-03-04T13:31:52.113Z,988.86
2018-03-04T13:33:02.221Z,988.9
2018-03-04T13:34:12.069Z,988.89
2018-03-04T13:35:22.085Z,988.85
2018-03-04T13:36:31.902Z,988.85
2018-03-04T13:37:42.019Z,988.78
2018-03-04T13:38:52.103Z,988.77
2018-03-04T13:40:01.906Z,988.68
2018-03-04T13:41:12.007Z,988.68
2018-03-04T13:42:22.098Z,988.64
2018-03-04T13:43:32.210Z,988.61
2018-03-04T13:44:42.033Z,988.62
2018-03-04T13:45:52.157Z,988.59
2018-03-04T13:47:02.256Z,988.55
2018-03-04T13:48:12.345Z,988.54
2018-03-04T13:49:22.397Z,988.67
2018-03-04T13:50:32.215Z,988.64
2018-03-04T13:51:42.072Z,988.63
2018-03-04T13:52:52.168Z,988.62
2018-03-04T13:54:02.250Z,988.63
2018-03-04T13:55:11.842Z,988.61
2018-03-04T13:56:21.916Z,988.59
2018-03-04T13:57:31.974Z,988.58
2018-03-04T13:58:42.062Z,988.6
2018-03-04T13:59:52.149Z,988.63
2018-03-04T14:01:02.233Z,988.58
2018-03-04T14:02:12.303Z,988.58
2018-03-04T14:03:21.883Z,988.57
2018-03-04T14:04:31.967Z,988.56
2018-03-04T14:05:42.051Z,988.48
2018-03-04T14:06:51.844Z,988.43
2018-03-04T14:08:01.905Z,988.46
2018-03-04T14:09:12.010Z,988.45
2018-03-04T14:10:22.071Z,988.38
2018-03-04T14:11:31.867Z,988.41
2018-03-04T14:12:41.934Z,988.42
2018-03-04T14:13:51.756Z,988.35
2018-03-04T14:15:01.603Z,988.37
2018-03-04T14:16:11.678Z,988.34
2018-03-04T14:17:21.272Z,988.31
2018-03-04T14:18:31.342Z,988.26
2018-03-04T14:19:41.434Z,988.3
2018-03-04T14:20:51.504Z,988.26
2018-03-04T14:22:01.596Z,988.34
2018-03-04T14:23:11.423Z,988.29
2018-03-04T14:24:21.516Z,988.28
2018-03-04T14:25:30.803Z,988.2
2018-03-04T14:26:40.914Z,988.22
2018-03-04T14:27:50.987Z,988.21
2018-03-04T14:29:01.063Z,988.25
2018-03-04T14:30:10.329Z,988.21
2018-03-04T14:31:20.190Z,988.2
2018-03-04T14:32:30.284Z,988.17
2018-03-04T14:33:40.101Z,988.14
2018-03-04T14:34:49.638Z,988.12
2018-03-04T14:35:59.723Z,988.03
2018-03-04T14:37:09.809Z,988.01
2018-03-04T14:38:19.894Z,988.04
2018-03-04T14:39:29.956Z,988.03
2018-03-04T14:40:39.243Z,987.99
2018-03-04T14:41:49.317Z,988
2018-03-04T14:42:59.384Z,988.03
2018-03-04T14:44:09.527Z,988.02
2018-03-04T14:45:19.652Z,988.03
2018-03-04T14:46:29.463Z,988.01
2018-03-04T14:47:39.560Z,988.02
2018-03-04T14:48:49.381Z,988.03
2018-03-04T14:49:58.960Z,988.03
2018-03-04T14:51:08.793Z,988
2018-03-04T14:52:18.596Z,987.95
2018-03-04T14:53:28.696Z,987.94
2018-03-04T14:54:38.508Z,987.91
2018-03-04T14:55:48.374Z,987.96
2018-03-04T14:56:58.199Z,987.91
2018-03-04T14:58:08.026Z,987.85
2018-03-04T14:59:18.143Z,987.91
2018-03-04T15:00:27.977Z,987.92
2018-03-04T15:01:38.166Z,987.86
2018-03-04T15:02:48.251Z,987.81
2018-03-04T15:03:58.064Z,987.76
2018-03-04T15:05:08.142Z,987.81